18 dezembro 2007

Mau tempo!

O Inverno está aí a chegar e estes últimos dias têm demonstrado isso mesmo.
Hoje o tempo esteve particularmente mau em todo o arquipélago obrigando a SATA a cancelar vários voos.
Deixo aqui os piores METAR do dia dos aeroportos que os emitem para a internet

LPAZ 181700Z 35034G50KT 8000 FEW005 BKN016 FEW020CB 14/12 Q1000

LPFL 181430Z 35022G32KT 9999 SCT020 14/05 Q1017

LPPD 181700Z 02022G44KT 340V040 7000 -SHRA BKN016 FEW020CB 15/10 Q1002

LPLA 181300Z 33032G53KT 9999 VCSH SCT018 FEW020TCU SCT035 14/07 Q1008 BLU/BLU

LPHR 181530Z 35033G50KT 9999 SCT013 SCT035 15/07 Q1009

Não é todos os dias que se vêm 50 nós num METAR, quanto mais em três ilhas diferentes durante uma tarde!

23 comentários:

Anónimo disse...

No entanto a TAP veio ao Pico... Foi ao Faial também ???

Rui Medeiros disse...

Na terça feira não há voos de Lisboa para o Faial no horário de Inverno.

O Padrinho disse...

Mesmo com 50 KTS a SATA AIR AÇORES
operou no FAIAL e com toda a segurança.!!!
Limitações de vento publicadas só existem no FUNCHAL e no PICO!!!

Rui Medeiros disse...

Lamento informá-lo que mais uma vez está errado.
Ontem a SATA Air Açores só fez um voo dos 6 programados para escalar a Horta. Esse voo aterrou às 10:35 da manhã altura em que o METAR mostrava ventos na ordem dos 10 nós.
Já por volta do meio-dia, o vento na ordem dos 33 nós foi suficiente para manter no chão o voo 570 que faria PDL-HOR-FLW e como o tempo não melhorou na Horta, acabou por voar directo ás flores.
Ou seja, foi um dia de vento Norte que é o limitativo na Horta e como tal os voos cancelaram.
Já agora digo-lhe também que no Aeroporto do Pico não houve qualquer cancelamento.

Anónimo disse...

E qual era a intensidade do vento no Pico? Já que ninguèm consegue saber?

Rui Medeiros disse...

Os METAR do Pico, S. Jorge, Graciosa e Corvo não aparecem na internet.
Eles existem e já cheguei a mandar um mail ao instituto de meteorologia sobre o assunto mas a resposta não foi esclarecedora.
Assim, do Pico posso só estimar que dado o estado do tempo em todo o grupo central, deve ter estado muito parecido, provavelmente com rajadas de menor intensidade e sem variação uma vez que o vento norte vem do mar na zona do aeroporto.
A razão porque houve voos para o Pico enquanto cancelavam outros para o Faial é a mesma de quando o vento é sul e a situação é inversa. Ventos de cima das ilhas têm tendência a ganhar variações, por vezes as rajadas intensificam-se e são limitativos há operação nos aeroportos.

Pedro Sousa disse...

Deixo-vos aqui os dois piores METARs do dia 17 para o Pico. Noutra oportunidade tentarei colocar os do dia 17.

LPPI 170930Z 30017G33KT 240V350 9999 SCT017 SCT02CB 12/06 Q1008 RMK RWY27 31025G35KT 270V340 RWY09 30028G40KT 260V350

LPPI 171800Z 34013G29KT 270V050 9999 SCT015 FEW018CB 14/06 Q1012 RWY27 33023G35KT 300V360 RWY09 34027G42KT 290V360

Anónimo disse...

aí aí este padrinho ...tente ser mais informado e ñ protega a sua ilha sem saber o que diz. Cumprimentos

o padrinho disse...

Ás 10:30,segundo informação do Rui, o Metar indicava 10Kts,logo estavam 10Kts quando a TAP aterrou no Pico,por isso não percebo porquê tanto alarido e comparação com o Faial. Uma coisa é certa: 80% dos dias do ano o vento sopra do quadrante Sul e com mais de 20 Kts(incluindo rajadas) nem aterragens nem descolagens no Pico!!!!
Portanto não é uma questão de defender uma ilha mas constatar uma realidade incontornável.

O Padrinho sabe o que diz!!!

Pedro Sousa disse...

Seguem alguns METARs do dia 18. Incluo o das 1200Z (hora da chegada do TAP).

LPPI 180800Z 36018G32KT 300V060 9000 SHRA FEW012 BKN025 12/07 Q1014 RMK RWY27 35025G35KT 300V040 RWY09 35030G40KT 300V040

LPPI 181200Z 36016G30KT 300V060 9999 SHRA SCT020 FEW025CB SCT035 14/07 Q1014 RMK RWY27 35023G35KT 320V020 RWY09 35022G36KT 320V020

LPPI 181600Z 35018G30KT 290V040 9999 SHRA FEW018 FEW022CB BKN033 14/10 Q1012 RMK RWY27 35030G41KT 320V020 RWY09 35031G41KT 320V020

Anónimo disse...

Está bem,o Padrinho tem razão,mas o vento do Pico é mais doce do que o do Faial!

Anónimo disse...

Porque é que o voo SP652 da Terceira para o Pico foi hoje desviado para o Faial. Estava mal tempo ou não podia aterrar porque já era de noite????????????
joao

Rui Medeiros disse...

Aparentemente, apesar das luzes já se encontrarem certificadas, a SATA ainda não pode voar para o Pico depois do por do sol. Hoje o voo atrasou por probelmas com a aeronave e quando saiu já estava a anoitecer.
Não sei mais detalhes.

Paulo Pereira disse...

Mais vento num dia, menos no outro, rapidamente se chega à conclusão que não é o vento que justifica esta disparidade de número de voos da TAP para o Pico ou para o Faial. Será que os 14 mil habitantes de uma ilha viajam assim tão mais que os 14 mil de outra?
Ou mais um voo para o Pico significa menos um para o Faial, pois os dois destinos são próximos. Se é assim, então divida-se o número de voos: 3 para o Pico e 3 para o Faial.
Ou então, 5 para o Faial e 1 para o Pico num ano e no outro o inverso: 5 para o Pico e 1 para o Faial.
Claro que o padrinho sabe estas coisas... mas não diz.
E, se quer um conselho, caro padrinho, mude o tema, de mansinho, pois quanto mais discutirmos este assunto, mais esclarecidos e senhores dos seus direitos ficarão os picoenses. O que trará custos, claro está, a quem historicamente teima em nos asfixiar.

Anónimo disse...

E esta do Aeroporto do Pico!?
Então não é que os passageiros do Pico tiveram que ir para o Faial porque as luzes do Aeroporto do Pico não estão certificadas...
Mas, o que é isto?
Ouvi o Presidente da Câmara da Madalena dizer que esta era uma péssima prenda de Natal do Governo aos Picoenses e estou totalmente de acordo. A final andamos todos enganados!
Mas onde andam os outros políticos do Pico?
Onde anda o Serpa que tanto criticou o Presidente da Câmara da Madalena por este ter dito que estava desiludido com as decisões do governo na visita ao Pico.
Onde estão todos os outros que alinhavam no coro, criticando o Jorge Rodrigues,dizendo que o Governo era uma pessoa de bem e que os compromissos não pricisavam de ser escritos. Bastava ser dito!
São e sempre foram estes fantoches que fizeram com que os Picoenses estejam como estão...
Lembram-se do Manuel Serpa, nosso deputado, em inflamados discursos na Assembleia lutar pelo Pico, pelo homem que trabalhava a vinha de sol a sol, das mulheres de lenço que iam parir para o Faial, da falta de condições dos transportes marítimos, etc etc.
E punha aquele ar,bem estudado, quase lhe víamos lágrimas nos olhos...Será que não eram de crocodilo?
Pois é , hoje o homem de vinha ainda continua a trabalhar de sol a sol, tudo o resto continua igual e nalguns casos pior e vejam só, depois de o Aeroporto ser a obra da governação Socialista em 12 anos no PICO os passageiros, tal como o homem da vinha,TÊM DE SE REGULAR PELO SOL, só que estes, os passageiros, para ver se ainda há sol para o Avião vir ao Pico.
F A L T A D E V E R G O N H A

Anti - Padrinhos disse...

Padrinho vá pa escola e depois fale...é pena termos anonimos como esse ...(e desculpem o termo)...ignorante

o padrinho disse...

(.......E, se quer um conselho, caro padrinho, mude o tema, de mansinho, pois quanto mais discutirmos este assunto, mais esclarecidos e senhores dos seus direitos ficarão os picoenses.....)

Ó Paulo, esta nem ao diabo lembrava!!
Então estou aqui a mostrar aos Picoenses os seus direitos e mandas-me mudar o tema ?
Ou será que o tema do "tal vento Sul" assusta muita gente?

O Padrinho diz: O Rei vai nú!!!

Paulo Pereira disse...

O “tal vento Sul” para o Pico, assim como o “tal vento Norte” para o Faial não me assusta nem de deixa de assustar. Quando não houver condições de descolar ou de aterrar em qualquer um dos aeroportos, não há voos. Não foi sempre assim?
Agora, nada justifica a disparidade do número de voos entre o Faial e o Pico. Aqui sim, o rei, a rainha e toda a sua corte vão nus.

o padrinho disse...

Se reparar bem Paulo, nunca me referi ao número de vôos,mas sim ás condições de operacionalidade dos dois aeroportos.
Quantos mais vôos melhor, mas o Faial não tem culpa da ocupação ser tão baixa que a TAP não disponibiliza mais vôos para o Pico.
Portanto vamos lá,façam o sacrifício de não vir para o Faial e esperem pelo vôo da semana seguinte se querem aumentar a ocupação.

O Padrinho só dá bons conselhos!!!

Paulo Pereira disse...

Talvez não seja necessário esperar pelo voo da semana seguinte, uma vez que há ligações pela Terceira ou S. Miguel e transbordo pela SATA. Os preços deveriam ser os mesmos – S. Miguel e Terceira talvez agradecessem.
A ligação ao Pico deve ser efectuada ao Sábado, ao Domingo ou à Segunda, nunca a uma Terça-Feira.
Qualquer anónimo, alcoólico ou não, vê que o dia de ligação é o pior.
O padrinho anónimo não vê... Dando razão ao ditado: o pior cego é aquele que não quer ver.

o padrinho disse...

O Faial continua sem ter culpa do vôo ser á Terça e São Jorge nem á Terça tem!
Quantos mais vôos melhor, porque beneficiam todas as ilhas,especialmente para a ocupação das camas do Faial.
Vamos São Jorge não fiquem para trás e reevindiquem também vôos directos para Lisboa.

O Padrinho diz: Ou há moralidade ou comem todos!!!

Pai disse...

o pradinho tem razão nós (jorgenses) nem À terça temos...mas dificilmente vamos ter...talvez daqui a uns 10 anos...mas ñ creio que seja já nestas proximas obras de ampliação...abraços a todos

Pai disse...

o pradinho tem razão nós (jorgenses) nem À terça temos...mas dificilmente vamos ter...talvez daqui a uns 10 anos...mas ñ creio que seja já nestas proximas obras de ampliação...abraços a todos